Dades meteomassalio
Diari Summary for Setembre 9, 2017 Units:  Metric    English   Both
« Previous Day
Next Day »
Diari Semanal Mensual Anual Personalitzat
  Maxima: Minima: Mijana:
Temperatura: -17.8 °C -11.3 °C -8.7 °C
Rosada: -17.8 °C -13.4 °C -11.7 °C
Humitat: Humidity % 53 % 71 %
Velocitat del vent: 0 km/h 0 km/h 28.5 km/h
Racha vent: 0 km/h - -
Vent:- - SW
Pressio: 0 hPa 34107.2 hPa -
Pluja: 7.62 mm    
Historical Graphs
 
 
Tabular Data for Setembre 9, 2017
Time Temperature Dew Point Pressure Wind Wind Speed Wind Gust Humidity Rainfall Rate (Hourly) solar Conditions
-17.8 °C -17.8 °C 0 hPa Calm     Humidity % 0 mm SolarRadiationWatts/m^2 W/m2 Conditions
00:00 -9.4 °C -12 °C 34222.3 hPa Calm     74 % 0 mm 0.0 W/m2 CLR
00:05 -9.4 °C -12.1 °C 34222.3 hPa Calm     73 % 0 mm 0.0 W/m2 CLR
00:10 -9.4 °C -11.9 °C 34222.3 hPa Calm     75 % 0 mm 0.0 W/m2 CLR
00:15 -9.4 °C -11.7 °C 34222.3 hPa Calm     77 % 0 mm 0.0 W/m2 CLR
00:20 -9.8 °C -12 °C 34222.3 hPa Calm     77 % 0 mm 0.0 W/m2 CLR
00:25 -9.8 °C -12.1 °C 34222.3 hPa Calm     76 % 0 mm 0.0 W/m2 CLR
00:30 -9.8 °C -12.2 °C 34222.3 hPa Calm     75 % 0 mm 0.0 W/m2 CLR
00:35 -9.4 °C -11.4 °C 34222.3 hPa Calm     79 % 0 mm 0.0 W/m2 CLR
00:40 -9.4 °C -11.6 °C 34222.3 hPa Calm     78 % 0 mm 0.0 W/m2 CLR
00:45 -9.4 °C -11.7 °C 34222.3 hPa Calm     77 % 0 mm 0.0 W/m2 CLR
00:50 -9.1 °C -11.3 °C 34212.1 hPa Calm     77 % 0 mm 0.0 W/m2 CLR
00:55 -9.1 °C -11.3 °C 34222.3 hPa Calm     77 % 0 mm 0.0 W/m2 CLR
01:00 -9.1 °C -11.3 °C 34212.1 hPa Calm     77 % 0 mm 0.0 W/m2 CLR
01:05 -9.1 °C -11.2 °C 34212.1 hPa Calm     79 % 0 mm 0.0 W/m2 CLR
01:10 -9.1 °C -11.2 °C 34212.1 hPa Calm     79 % 0 mm 0.0 W/m2 CLR
01:15 -9.1 °C -11.2 °C 34212.1 hPa South 3.1 km/h   79 % 0 mm 0.0 W/m2 CLR
01:20 -9.4 °C -11.3 °C 34212.1 hPa Calm     80 % 0 mm 0.0 W/m2 CLR
01:25 -9.4 °C -11.4 °C 34212.1 hPa Calm     79 % 0 mm 0.0 W/m2 CLR
01:30 -9.4 °C -11.4 °C 34198.6 hPa Calm     79 % 0 mm 0.0 W/m2 CLR
01:35 -9.8 °C -11.6 °C 34198.6 hPa Calm     81 % 0 mm 0.0 W/m2 CLR
01:40 -9.8 °C -11.6 °C 34198.6 hPa Calm     80 % 0 mm 0.0 W/m2 CLR
01:45 -10.1 °C -11.8 °C 34198.6 hPa Calm     81 % 0 mm 0.0 W/m2 CLR
01:50 -10.1 °C -11.8 °C 34198.6 hPa Calm     81 % 0 mm 0.0 W/m2 CLR
01:55 -10.1 °C -11.8 °C 34198.6 hPa Calm     81 % 0 mm 0.0 W/m2 CLR
02:00 -10.1 °C -11.7 °C 34198.6 hPa Calm     82 % 0 mm 0.0 W/m2 CLR
02:05 -10.1 °C -11.7 °C 34198.6 hPa Calm     82 % 0 mm 0.0 W/m2 CLR
02:10 -10.4 °C -11.9 °C 34198.6 hPa Calm     83 % 0 mm 0.0 W/m2 CLR
02:15 -10.4 °C -11.9 °C 34188.4 hPa Calm     83 % 0 mm 0.0 W/m2 CLR
02:20 -10.4 °C -11.8 °C 34188.4 hPa SE 3.1 km/h 3.1 km/h 84 % 0 mm 0.0 W/m2 CLR
02:25 -10.4 °C -11.8 °C 34178.3 hPa Calm     84 % 0 mm 0.0 W/m2 CLR
02:30 -10.4 °C -11.8 °C 34178.3 hPa Calm     84 % 0 mm 0.0 W/m2 CLR
02:35 -10.1 °C -11.4 °C 34164.7 hPa Calm     85 % 0 mm 0.0 W/m2 CLR
02:40 -10.4 °C -11.7 °C 34164.7 hPa Calm     85 % 0 mm 0.0 W/m2 CLR
02:45 -10.4 °C -11.7 °C 34164.7 hPa Calm     85 % 0 mm 0.0 W/m2 CLR
02:50 -10.4 °C -11.7 °C 34164.7 hPa Calm     85 % 0 mm 0.0 W/m2 CLR
02:55 -10.4 °C -11.7 °C 34164.7 hPa Calm     85 % 0 mm 0.0 W/m2 CLR
03:00 -10.4 °C -11.7 °C 34164.7 hPa Calm     85 % 0 mm 0.0 W/m2 CLR
03:05 -10.4 °C -11.7 °C 34164.7 hPa Calm     85 % 0 mm 0.0 W/m2 CLR
03:10 -10.4 °C -11.7 °C 34154.6 hPa Calm     85 % 0 mm 0.0 W/m2 CLR
03:15 -10.4 °C -11.7 °C 34154.6 hPa Calm     85 % 0 mm 0.0 W/m2 CLR
03:20 -10.7 °C -12.1 °C 34154.6 hPa Calm     85 % 0 mm 0.0 W/m2 CLR
03:25 -10.7 °C -11.9 °C 34154.6 hPa Calm     86 % 0 mm 0.0 W/m2 CLR
03:30 -10.7 °C -11.9 °C 34154.6 hPa Calm     86 % 0 mm 0.0 W/m2 CLR
03:31 -10.7 °C -11.9 °C 34144.4 hPa Calm     86 % 0 mm 0.0 W/m2 CLR
03:36 -10.7 °C -11.9 °C 34144.4 hPa Calm     86 % 0 mm 0.0 W/m2 CLR
03:41 -10.7 °C -11.9 °C 34144.4 hPa Calm     86 % 0 mm 0.0 W/m2 CLR
03:46 -10.7 °C -11.9 °C 34144.4 hPa Calm     86 % 0 mm 0.0 W/m2 CLR
03:51 -10.7 °C -11.8 °C 34130.9 hPa Calm     87 % 0 mm 0.0 W/m2 CLR
03:56 -10.7 °C -11.8 °C 34130.9 hPa Calm     87 % 0 mm 0.0 W/m2 CLR
04:01 -10.7 °C -11.8 °C 34130.9 hPa Calm     88 % 0 mm 0.0 W/m2 CLR
04:06 -10.7 °C -11.8 °C 34130.9 hPa Calm     88 % 0 mm 0.0 W/m2 CLR
04:11 -10.7 °C -11.8 °C 34130.9 hPa Calm     88 % 0 mm 0.0 W/m2 CLR
04:21 -10.7 °C -11.8 °C 34120.7 hPa Calm     88 % 0 mm 0.0 W/m2 CLR
04:26 -10.7 °C -11.8 °C 34120.7 hPa Calm     88 % 0 mm 0.0 W/m2 CLR
04:31 -10.7 °C -11.8 °C 34120.7 hPa Calm     88 % 0 mm 0.0 W/m2 CLR
04:36 -10.7 °C -11.8 °C 34120.7 hPa Calm     88 % 0 mm 0.0 W/m2 CLR
04:41 -10.7 °C -11.8 °C 34120.7 hPa Calm     88 % 0 mm 0.0 W/m2 CLR
04:46 -10.4 °C -11.3 °C 34120.7 hPa Calm     89 % 0 mm 0.0 W/m2 CLR
04:51 -10.4 °C -11.3 °C 34120.7 hPa Calm     89 % 0 mm 0.0 W/m2 CLR
04:56 -10.4 °C -11.3 °C 34120.7 hPa Calm     89 % 0 mm 0.0 W/m2 CLR
05:01 -10.4 °C -11.3 °C 34130.9 hPa Calm     89 % 0 mm 0.0 W/m2 CLR
05:06 -10.4 °C -11.3 °C 34130.9 hPa Calm     89 % 0 mm 0.0 W/m2 CLR
05:13 -10.4 °C -11.3 °C 34130.9 hPa Calm     89 % 0 mm 0.0 W/m2 CLR
05:18 -10.4 °C -11.3 °C 34130.9 hPa Calm     90 % 0 mm 0.0 W/m2 CLR
05:19 -10.4 °C -11.3 °C 34130.9 hPa Calm     90 % 0 mm 0.0 W/m2 CLR
05:21 -10.4 °C -11.3 °C 34120.7 hPa Calm     90 % 0 mm 0.0 W/m2 CLR
05:23 -10.4 °C -11.3 °C 34120.7 hPa Calm     89 % 0 mm 0.0 W/m2 CLR
05:26 -10.4 °C -11.3 °C 34130.9 hPa Calm     89 % 0 mm 0.0 W/m2 CLR
05:31 -10.4 °C -11.3 °C 34120.7 hPa Calm     90 % 0 mm 0.0 W/m2 CLR
05:36 -10.7 °C -11.6 °C 34120.7 hPa Calm     90 % 0 mm 0.0 W/m2 CLR
05:41 -10.7 °C -11.7 °C 34120.7 hPa Calm     89 % 0 mm 0.0 W/m2 CLR
05:46 -10.7 °C -11.6 °C 34120.7 hPa Calm     90 % 0 mm 0.0 W/m2 CLR
05:51 -11 °C -11.9 °C 34120.7 hPa Calm     90 % 0 mm 0.0 W/m2 CLR
05:56 -11 °C -11.9 °C 34120.7 hPa Calm     90 % 0 mm 0.0 W/m2 CLR
06:01 -11 °C -11.9 °C 34107.2 hPa Calm     90 % 0 mm 0.0 W/m2 CLR
06:06 -11 °C -11.9 °C 34107.2 hPa Calm     90 % 0 mm 0.0 W/m2 CLR
06:11 -11 °C -11.9 °C 34107.2 hPa Calm     90 % 0 mm 0.0 W/m2 CLR
06:16 -11.3 °C -12.2 °C 34120.7 hPa Calm     90 % 0 mm 0.0 W/m2 CLR
06:21 -11 °C -11.9 °C 34120.7 hPa Calm     90 % 0 mm 0.0 W/m2 CLR
06:26 -11 °C -11.9 °C 34120.7 hPa Calm     90 % 0 mm 0.0 W/m2 CLR
06:31 -11 °C -11.9 °C 34120.7 hPa Calm     90 % 0 mm 0.0 W/m2 CLR
06:36 -11 °C -11.9 °C 34120.7 hPa Calm     90 % 0 mm 0.0 W/m2 CLR
06:41 -11 °C -11.9 °C 34120.7 hPa Calm     90 % 0 mm 0.0 W/m2 CLR
06:46 -11 °C -11.8 °C 34120.7 hPa Calm     91 % 0 mm 0.0 W/m2 CLR
06:51 -11 °C -11.8 °C 34120.7 hPa Calm     91 % 0 mm 0.0 W/m2 CLR
06:56 -11 °C -11.8 °C 34130.9 hPa Calm     91 % 0 mm 0.0 W/m2 CLR
07:01 -11 °C -11.7 °C 34130.9 hPa South 3.1 km/h   92 % 0 mm 0.0 W/m2 CLR
07:06 -11 °C -11.9 °C 34130.9 hPa SW 9 km/h 9 km/h 90 % 0 mm 0.0 W/m2 CLR
07:11 -10.7 °C -11.8 °C 34144.4 hPa South 11.9 km/h 11.9 km/h 87 % 0 mm 0.0 W/m2 CLR
07:16 -10.7 °C -11.9 °C 34144.4 hPa SSW 15 km/h 15 km/h 86 % 0 mm 0.0 W/m2 CLR
07:21 -10.4 °C -11.6 °C 34144.4 hPa SSW 23.8 km/h 23.8 km/h 87 % 0 mm 0.0 W/m2 CLR
07:26 -9.8 °C -10.9 °C 34144.4 hPa SSW 23.3 km/h 23.3 km/h 87 % 0 mm 0.0 W/m2 OVC
07:31 -9.4 °C -10.8 °C 34154.6 hPa SSW 23.8 km/h 23.8 km/h 85 % 0 mm 0.0 W/m2 OVC
07:36 -9.4 °C -11.1 °C 34154.6 hPa SSW 18.2 km/h 18.2 km/h 83 % 0 mm 0.0 W/m2 OVC
07:41 -9.4 °C -11.2 °C 34154.6 hPa SSW 20.9 km/h 20.9 km/h 81 % 0 mm 0.0 W/m2 OVC
07:46 -9.1 °C -11.2 °C 34154.6 hPa South 15 km/h 15 km/h 79 % 0 mm 5.0 W/m2 OVC
07:51 -9.4 °C -11.7 °C 34154.6 hPa SSW 11.9 km/h 11.9 km/h 77 % 0 mm 7.0 W/m2 BKN
07:56 -9.4 °C -11.8 °C 34154.6 hPa SW 11.9 km/h 11.9 km/h 76 % 0 mm 11.0 W/m2 BKN
08:01 -9.4 °C -11.8 °C 34164.7 hPa SSW 11.9 km/h   76 % 0 mm 14.0 W/m2 BKN
08:06 -9.4 °C -11.8 °C 34154.6 hPa Calm     76 % 0 mm 19.0 W/m2 BKN
08:07 -9.4 °C -11.8 °C 34154.6 hPa Calm     76 % 0 mm 19.0 W/m2 BKN
08:12 -9.4 °C -12 °C 34154.6 hPa SSW 9 km/h 9 km/h 74 % 0 mm 25.0 W/m2 BKN
08:17 -9.4 °C -12 °C 34164.7 hPa Calm     74 % 0 mm 33.0 W/m2 BKN
08:22 -9.4 °C -11.9 °C 34164.7 hPa Calm     75 % 0 mm 42.0 W/m2 BKN
08:27 -9.4 °C -11.8 °C 34164.7 hPa SSE 12.9 km/h 12.9 km/h 76 % 0 mm 46.0 W/m2 SCT
08:32 -9.4 °C -11.8 °C 34164.7 hPa SSE 9 km/h   76 % 0 mm 44.0 W/m2 BKN
08:37 -9.1 °C -11.6 °C 34164.7 hPa South 17.9 km/h 17.9 km/h 75 % 0 mm 44.0 W/m2 BKN
08:42 -9.1 °C -12.1 °C 34164.7 hPa SE 23.3 km/h 23.3 km/h 71 % 0 mm 56.0 W/m2 SCT
08:47 -8.8 °C -12 °C 34164.7 hPa South 32.8 km/h 32.8 km/h 69 % 0 mm 74.0 W/m2 SCT
08:52 -8.8 °C -12.2 °C 34164.7 hPa SSE 17.9 km/h 17.9 km/h 67 % 0 mm 83.0 W/m2 FEW
08:57 -8.8 °C -12.3 °C 34164.7 hPa SSE 32.8 km/h 32.8 km/h 66 % 0 mm 91.0 W/m2 FEW
09:02 -8.8 °C -12.3 °C 34164.7 hPa South 20.9 km/h 20.9 km/h 66 % 0 mm 118.0 W/m2 CLR
09:07 -8.8 °C -12.2 °C 34164.7 hPa South 15 km/h 15 km/h 67 % 0 mm 134.0 W/m2 CLR
09:12 -8.5 °C -11.9 °C 34164.7 hPa SSW 29.8 km/h 29.8 km/h 67 % 0 mm 121.0 W/m2 CLR
09:17 -8.2 °C -11.6 °C 34164.7 hPa SSW 23.8 km/h 23.8 km/h 67 % 0 mm 118.0 W/m2 CLR
09:22 -8.2 °C -11.5 °C 34164.7 hPa South 32.8 km/h 32.8 km/h 68 % 0 mm 148.0 W/m2 CLR
09:27 -7.9 °C -11.2 °C 34164.7 hPa SSW 26.9 km/h 26.9 km/h 68 % 0 mm 181.0 W/m2 CLR
09:32 -7.9 °C -11.2 °C 34164.7 hPa SSW 23.8 km/h 23.8 km/h 68 % 0 mm 227.0 W/m2 CLR
09:37 -7.9 °C -11.2 °C 34164.7 hPa SSW 20.9 km/h 20.9 km/h 68 % 0 mm 220.0 W/m2 CLR
09:42 -7.6 °C -10.9 °C 34164.7 hPa South 29.8 km/h 29.8 km/h 68 % 0 mm 206.0 W/m2 CLR
09:47 -7.6 °C -10.8 °C 34164.7 hPa South 29.8 km/h 29.8 km/h 69 % 0 mm 193.0 W/m2 CLR
09:52 -7.6 °C -10.8 °C 34164.7 hPa SW 29.8 km/h 29.8 km/h 69 % 0 mm 223.0 W/m2 CLR
09:57 -7.6 °C -10.8 °C 34164.7 hPa SSW 9 km/h 9 km/h 69 % 0 mm 264.0 W/m2 CLR
10:02 -7.3 °C -10.5 °C 34164.7 hPa WSW 41.4 km/h 41.4 km/h 69 % 0 mm 218.0 W/m2 CLR
10:07 -7.3 °C -10.7 °C 34164.7 hPa South 23.8 km/h 23.8 km/h 68 % 0 mm 174.0 W/m2 CLR
10:12 -7.3 °C -10.7 °C 34164.7 hPa SSW 23.8 km/h 23.8 km/h 68 % 0 mm 223.0 W/m2 CLR
10:17 -7.3 °C -10.7 °C 34164.7 hPa SW 44.7 km/h 44.7 km/h 68 % 0 mm 204.0 W/m2 CLR
10:22 -7.3 °C -10.5 °C 34164.7 hPa West 38.8 km/h 38.8 km/h 69 % 0 mm 218.0 W/m2 CLR
10:28 -7.3 °C -10.5 °C 34164.7 hPa South 17.9 km/h 17.9 km/h 69 % 0 mm 209.0 W/m2 CLR
10:33 -7.3 °C -10.7 °C 34164.7 hPa SSW 44.7 km/h 44.7 km/h 68 % 0 mm 199.0 W/m2 CLR
10:38 -7.3 °C -10.7 °C 34164.7 hPa SSW 26.9 km/h 26.9 km/h 68 % 0 mm 169.0 W/m2 CLR
10:43 -7.3 °C -10.7 °C 34164.7 hPa SSW 38.8 km/h 38.8 km/h 68 % 0 mm 144.0 W/m2 CLR
10:48 -7.3 °C -10.7 °C 34164.7 hPa South 47.6 km/h 47.6 km/h 68 % 0 mm 134.0 W/m2 CLR
10:53 -7.3 °C -10.7 °C 34164.7 hPa SW 23.8 km/h 23.8 km/h 68 % 0 mm 137.0 W/m2 CLR
10:58 -7.3 °C -10.7 °C 34164.7 hPa SW 36.2 km/h 36.2 km/h 68 % 0 mm 139.0 W/m2 CLR
11:03 -7.3 °C -10.7 °C 34164.7 hPa SW 20.9 km/h 20.9 km/h 68 % 0 mm 142.0 W/m2 CLR
11:08 -7.3 °C -10.7 °C 34164.7 hPa SW 50.7 km/h 50.7 km/h 68 % 0 mm 132.0 W/m2 CLR
11:13 -7.3 °C -10.7 °C 34164.7 hPa SW 44.7 km/h 44.7 km/h 68 % 0 mm 105.0 W/m2 CLR
11:18 -7.3 °C -10.7 °C 34178.3 hPa SSW 35.7 km/h 35.7 km/h 68 % 0 mm 125.0 W/m2 CLR
11:23 -7.3 °C -10.7 °C 34178.3 hPa SW 35.7 km/h 35.7 km/h 68 % 0 mm 142.0 W/m2 CLR
11:28 -7.3 °C -10.7 °C 34178.3 hPa SSW 29.8 km/h 29.8 km/h 68 % 0 mm 158.0 W/m2 CLR
11:33 -7 °C -10.3 °C 34178.3 hPa SW 53.6 km/h 53.6 km/h 68 % 0 mm 162.0 W/m2 CLR
11:38 -7 °C -10.4 °C 34178.3 hPa WSW 25.9 km/h 25.9 km/h 67 % 0 mm 162.0 W/m2 CLR
11:43 -7 °C -10.4 °C 34178.3 hPa SW 32.8 km/h 32.8 km/h 67 % 0 mm 202.0 W/m2 CLR
11:48 -7 °C -10.4 °C 34178.3 hPa SW 38.8 km/h 38.8 km/h 67 % 0 mm 192.0 W/m2 CLR
11:53 -7 °C -10.6 °C 34178.3 hPa SW 41.7 km/h 41.7 km/h 66 % 0 mm 185.0 W/m2 CLR
11:58 -7 °C -10.4 °C 34178.3 hPa WSW 50.7 km/h 50.7 km/h 67 % 0 mm 186.0 W/m2 CLR
12:03 -6.7 °C -10.3 °C 34178.3 hPa WSW 44.7 km/h 44.7 km/h 66 % 0 mm 146.0 W/m2 CLR
12:08 -7 °C -10.6 °C 34178.3 hPa SW 68.6 km/h 68.6 km/h 66 % 0 mm 163.0 W/m2 CLR
12:13 -7 °C -10.4 °C 34178.3 hPa WSW 50.7 km/h 50.7 km/h 67 % 0 mm 207.0 W/m2 CLR
12:18 -6.7 °C -10.3 °C 34178.3 hPa WSW 59.5 km/h 59.5 km/h 66 % 0 mm 200.0 W/m2 CLR
12:23 -7 °C -10.4 °C 34178.3 hPa WSW 50.7 km/h 50.7 km/h 67 % 0 mm 206.0 W/m2 CLR
12:28 -6.7 °C -10.2 °C 34178.3 hPa West 54.4 km/h 54.4 km/h 67 % 0 mm 209.0 W/m2 CLR
12:33 -7 °C -10.4 °C 34178.3 hPa WSW 62.6 km/h 62.6 km/h 67 % 0 mm 209.0 W/m2 CLR
12:38 -7 °C -10.4 °C 34178.3 hPa WSW 59.5 km/h 59.5 km/h 67 % 0 mm 185.0 W/m2 CLR
12:43 -7 °C -10.4 °C 34178.3 hPa WSW 50.7 km/h 50.7 km/h 67 % 0 mm 135.0 W/m2 CLR
12:48 -7 °C -10.3 °C 34178.3 hPa West 41.7 km/h 43 km/h 68 % 0 mm 123.0 W/m2 CLR
12:53 -7 °C -10.3 °C 34178.3 hPa SSW 38.8 km/h 38.8 km/h 68 % 0 mm 121.0 W/m2 CLR
12:58 -7.3 °C -10.5 °C 34178.3 hPa SSW 47.6 km/h 47.6 km/h 69 % 0 mm 116.0 W/m2 CLR
13:03 -7.3 °C -10.5 °C 34164.7 hPa SW 50.7 km/h 50.7 km/h 69 % 0 mm 104.0 W/m2 CLR
13:08 -7.3 °C -10.9 °C 34164.7 hPa SW 68.6 km/h 68.6 km/h 66 % 0 mm 105.0 W/m2 CLR
13:13 -7.3 °C -11 °C 34178.3 hPa WSW 53.6 km/h 53.6 km/h 65 % 0 mm 93.0 W/m2 CLR
13:18 -7.3 °C -10.8 °C 34178.3 hPa WSW 50.7 km/h 50.7 km/h 67 % 0 mm 95.0 W/m2 CLR
13:23 -7.3 °C -10.9 °C 34178.3 hPa WSW 62.6 km/h 62.6 km/h 66 % 0 mm 105.0 W/m2 CLR
13:28 -7.3 °C -11.2 °C 34178.3 hPa SSW 65.5 km/h 65.5 km/h 64 % 0 mm 118.0 W/m2 CLR
13:33 -7.3 °C -11.2 °C 34178.3 hPa SSW 59.5 km/h 59.5 km/h 64 % 0 mm 121.0 W/m2 CLR
13:38 -7.3 °C -11.3 °C 34178.3 hPa SW 44.1 km/h 44.1 km/h 63 % 0 mm 118.0 W/m2 CLR
13:43 -7.3 °C -11.3 °C 34178.3 hPa WSW 51.8 km/h 51.8 km/h 63 % 0 mm 134.0 W/m2 CLR
13:48 -7.3 °C -11.2 °C 34178.3 hPa SW 53.6 km/h 53.6 km/h 64 % 0 mm 139.0 W/m2 CLR
13:53 -7.6 °C -11.3 °C 34178.3 hPa SW 50.7 km/h 50.7 km/h 65 % 0 mm 130.0 W/m2 CLR
13:58 -7.6 °C -11.2 °C 34178.3 hPa SW 56.6 km/h 56.6 km/h 66 % 0 mm 111.0 W/m2 CLR
14:03 -7.6 °C -11.1 °C 34178.3 hPa WSW 54.4 km/h 54.4 km/h 67 % 0 mm 104.0 W/m2 CLR
14:08 -7.9 °C -11.2 °C 34178.3 hPa SW 53.6 km/h 53.6 km/h 68 % 0 mm 104.0 W/m2 CLR
14:13 -7.9 °C -11.1 °C 34188.4 hPa SW 44.1 km/h 44.1 km/h 69 % 0 mm 111.0 W/m2 CLR
14:18 -7.9 °C -11.1 °C 34178.3 hPa SSW 44.7 km/h 44.7 km/h 69 % 0 mm 105.0 W/m2 CLR
14:23 -7.9 °C -11 °C 34178.3 hPa SW 44.7 km/h 44.7 km/h 70 % 0 mm 81.0 W/m2 CLR
14:28 -8.2 °C -11.1 °C 34178.3 hPa SSW 35.7 km/h 35.7 km/h 72 % 0 mm 77.0 W/m2 FEW
14:33 -8.2 °C -11.2 °C 34188.4 hPa SW 53.6 km/h 53.6 km/h 71 % 0 mm 81.0 W/m2 FEW
14:38 -8.2 °C -11.1 °C 34188.4 hPa WSW 41.7 km/h 41.7 km/h 72 % 0 mm 95.0 W/m2 FEW
14:43 -8.2 °C -11.1 °C 34178.3 hPa SSW 44.1 km/h 44.1 km/h 72 % 0 mm 109.0 W/m2 CLR
14:44 -8.2 °C -11.1 °C 34178.3 hPa SW 38.8 km/h 38.8 km/h 72 % 0 mm 109.0 W/m2 CLR
14:49 -8.5 °C -11.1 °C 34178.3 hPa WSW 32.8 km/h 32.8 km/h 74 % 0 mm 100.0 W/m2 CLR
14:54 -8.5 °C -11.2 °C 34178.3 hPa SSW 38.8 km/h 38.8 km/h 73 % 0 mm 116.0 W/m2 CLR
14:59 -8.5 °C -11.3 °C 34178.3 hPa SW 29.8 km/h 29.8 km/h 72 % 7.62 mm 139.0 W/m2 RA
15:04 -8.5 °C -11.4 °C 34178.3 hPa SW 32.8 km/h 32.8 km/h 71 % 7.62 mm 142.0 W/m2 CLR
15:09 -8.2 °C -11.3 °C 34178.3 hPa SW 38.8 km/h 38.8 km/h 70 % 7.62 mm 193.0 W/m2 CLR
15:14 -8.2 °C -11.5 °C 34178.3 hPa SW 35.7 km/h 35.7 km/h 68 % 7.62 mm 236.0 W/m2 CLR
15:19 -7.9 °C -11.5 °C 34178.3 hPa SSW 50.7 km/h 50.7 km/h 66 % 7.62 mm 250.0 W/m2 CLR
15:24 -7.6 °C -11.6 °C 34164.7 hPa SW 50.7 km/h 50.7 km/h 63 % 7.62 mm 239.0 W/m2 CLR
15:29 -7.6 °C -11.6 °C 34178.3 hPa WSW 50.7 km/h 50.7 km/h 63 % 7.62 mm 248.0 W/m2 CLR
15:34 -7.6 °C -11.6 °C 34164.7 hPa WSW 41.7 km/h 41.7 km/h 63 % 7.62 mm 229.0 W/m2 CLR
15:39 -7.3 °C -11.4 °C 34164.7 hPa SW 41.7 km/h 41.7 km/h 62 % 7.62 mm 308.0 W/m2 CLR
15:44 -7.3 °C -11.3 °C 34164.7 hPa SW 44.7 km/h 44.7 km/h 63 % 7.62 mm 292.0 W/m2 CLR
15:49 -7.3 °C -11.6 °C 34164.7 hPa SW 47.6 km/h 47.6 km/h 61 % 7.62 mm 276.0 W/m2 CLR
15:54 -7.3 °C -11.6 °C 34154.6 hPa WSW 44.7 km/h 44.7 km/h 61 % 7.62 mm 271.0 W/m2 CLR
15:59 -7 °C -11.6 °C 34154.6 hPa SW 56.6 km/h 56.6 km/h 59 % 0 mm 322.0 W/m2 CLR
16:04 -7 °C -11.4 °C 34154.6 hPa WSW 38.8 km/h 38.8 km/h 60 % 0 mm 327.0 W/m2 CLR
16:09 -6.7 °C -11.4 °C 34144.4 hPa SW 47.6 km/h 47.6 km/h 58 % 0 mm 327.0 W/m2 CLR
16:14 -6.7 °C -11.6 °C 34144.4 hPa WSW 53.6 km/h 53.6 km/h 57 % 0 mm 334.0 W/m2 CLR
16:19 -6.7 °C -11.6 °C 34144.4 hPa West 41.7 km/h 41.7 km/h 57 % 0 mm 309.0 W/m2 CLR
16:24 -6.7 °C -11.7 °C 34144.4 hPa WSW 47.6 km/h 47.6 km/h 56 % 0 mm 287.0 W/m2 CLR
16:29 -6.7 °C -11.7 °C 34144.4 hPa WSW 53.6 km/h 53.6 km/h 56 % 0 mm 318.0 W/m2 CLR
16:34 -6.7 °C -11.7 °C 34144.4 hPa WSW 51.8 km/h 51.8 km/h 56 % 0 mm 399.0 W/m2 CLR
16:39 -6.3 °C -11.6 °C 34144.4 hPa WSW 38.8 km/h 38.8 km/h 55 % 0 mm 408.0 W/m2 CLR
16:44 -6.3 °C -11.7 °C 34144.4 hPa WSW 47.6 km/h 47.6 km/h 54 % 0 mm 378.0 W/m2 CLR
16:49 -6.1 °C -11.3 °C 34144.4 hPa West 44.7 km/h 44.7 km/h 55 % 0 mm 633.0 W/m2 CLR
16:54 -6.1 °C -11.6 °C 34144.4 hPa SW 56.6 km/h 56.6 km/h 53 % 0 mm 461.0 W/m2 CLR
16:59 -6.3 °C -11.7 °C 34130.9 hPa SW 38.8 km/h 38.8 km/h 54 % 0 mm 287.0 W/m2 CLR
17:00 -6.3 °C -11.7 °C 34130.9 hPa SW 47.6 km/h 47.6 km/h 54 % 0 mm 287.0 W/m2 CLR
17:05 -6.3 °C -11.6 °C 34144.4 hPa SW 53.6 km/h 53.6 km/h 55 % 0 mm 359.0 W/m2 CLR
17:10 -6.1 °C -11.3 °C 34144.4 hPa WSW 50.7 km/h 50.7 km/h 55 % 0 mm 425.0 W/m2 CLR
17:15 -6.1 °C -11.4 °C 34144.4 hPa West 50.7 km/h 50.7 km/h 54 % 0 mm 464.0 W/m2 CLR
17:20 -5.7 °C -11.2 °C 34144.4 hPa SW 47.6 km/h 47.6 km/h 54 % 0 mm 274.0 W/m2 CLR
17:25 -6.1 °C -11.6 °C 34144.4 hPa SW 53.6 km/h 53.6 km/h 53 % 0 mm 232.0 W/m2 CLR
17:30 -6.1 °C -11.4 °C 34144.4 hPa SW 49.2 km/h 49.2 km/h 54 % 0 mm 272.0 W/m2 CLR
17:35 -6.1 °C -11.6 °C 34144.4 hPa WSW 35.7 km/h 35.7 km/h 53 % 0 mm 206.0 W/m2 CLR
17:40 -6.3 °C -11.8 °C 34144.4 hPa SW 50.7 km/h 50.7 km/h 53 % 0 mm 188.0 W/m2 CLR
17:45 -6.3 °C -11.7 °C 34144.4 hPa SW 56.6 km/h 56.6 km/h 54 % 0 mm 186.0 W/m2 CLR
17:50 -6.3 °C -11.7 °C 34144.4 hPa WSW 47.6 km/h 47.6 km/h 54 % 0 mm 206.0 W/m2 CLR
17:55 -6.3 °C -11.8 °C 34144.4 hPa WSW 62.6 km/h 62.6 km/h 53 % 0 mm 139.0 W/m2 CLR
18:00 -6.7 °C -12 °C 34154.6 hPa West 51.8 km/h 51.8 km/h 54 % 0 mm 100.0 W/m2 CLR
18:05 -6.7 °C -12.2 °C 34154.6 hPa SSW 62.6 km/h 62.6 km/h 53 % 0 mm 62.0 W/m2 CLR
18:10 -7 °C -12.4 °C 34154.6 hPa West 53.6 km/h 53.6 km/h 53 % 0 mm 51.0 W/m2 FEW
18:15 -7 °C -12.3 °C 34154.6 hPa SW 41.7 km/h 41.7 km/h 54 % 0 mm 40.0 W/m2 SCT
18:20 -7 °C -12.3 °C 34154.6 hPa WSW 50.7 km/h 50.7 km/h 54 % 0 mm 28.0 W/m2 BKN
18:25 -7.3 °C -12.6 °C 34154.6 hPa WSW 59.5 km/h 59.5 km/h 54 % 0 mm 37.0 W/m2 BKN
18:30 -7.3 °C -12.4 °C 34164.7 hPa WSW 62.6 km/h 62.6 km/h 55 % 0 mm 32.0 W/m2 BKN
18:35 -7.3 °C -12.3 °C 34154.6 hPa SW 53.6 km/h 53.6 km/h 56 % 0 mm 23.0 W/m2 BKN
18:40 -7.3 °C -12.1 °C 34154.6 hPa SW 59.5 km/h 59.5 km/h 57 % 0 mm 32.0 W/m2 BKN
18:45 -7.6 °C -12 °C 34164.7 hPa SW 49.2 km/h 49.2 km/h 60 % 0 mm 25.0 W/m2 BKN
18:50 -7.9 °C -12 °C 34164.7 hPa SW 53.6 km/h 53.6 km/h 62 % 0 mm 25.0 W/m2 BKN
18:55 -8.2 °C -12.3 °C 34164.7 hPa SSW 41.7 km/h 41.7 km/h 62 % 0 mm 30.0 W/m2 BKN
19:01 -8.2 °C -12.3 °C 34164.7 hPa SSW 41.7 km/h 41.7 km/h 62 % 0 mm 35.0 W/m2 BKN
19:06 -8.2 °C -12.2 °C 34164.7 hPa SSW 29.8 km/h 29.8 km/h 63 % 0 mm 33.0 W/m2 BKN
19:11 -8.5 °C -12.2 °C 34164.7 hPa SSW 41.7 km/h 41.7 km/h 65 % 0 mm 28.0 W/m2 BKN
19:16 -8.5 °C -11.8 °C 34164.7 hPa South 29.8 km/h 29.8 km/h 68 % 0 mm 28.0 W/m2 BKN
19:21 -8.8 °C -12 °C 34164.7 hPa SSW 9 km/h 9 km/h 69 % 0 mm 35.0 W/m2 BKN
19:26 -8.8 °C -12 °C 34164.7 hPa South 26.9 km/h 26.9 km/h 69 % 0 mm 47.0 W/m2 SCT
19:31 -8.8 °C -12 °C 34164.7 hPa SSW 32.8 km/h 32.8 km/h 69 % 0 mm 70.0 W/m2 SCT
19:36 -8.8 °C -12.1 °C 34164.7 hPa SSW 41.7 km/h 41.7 km/h 68 % 0 mm 74.0 W/m2 FEW
19:41 -8.8 °C -12.2 °C 34164.7 hPa SSW 38.8 km/h 38.8 km/h 67 % 0 mm 90.0 W/m2 CLR
19:46 -8.8 °C -12.2 °C 34164.7 hPa South 32.8 km/h 32.8 km/h 67 % 0 mm 62.0 W/m2 SCT
19:51 -8.8 °C -12.2 °C 34164.7 hPa SSW 32.8 km/h 32.8 km/h 67 % 0 mm 56.0 W/m2 SCT
19:56 -8.8 °C -12.2 °C 34164.7 hPa SSW 35.7 km/h 35.7 km/h 67 % 0 mm 49.0 W/m2 SCT
20:01 -8.8 °C -12.2 °C 34164.7 hPa South 29.8 km/h 30.7 km/h 67 % 0 mm 32.0 W/m2 BKN
20:06 -8.8 °C -12.2 °C 34164.7 hPa SSW 41.7 km/h 41.7 km/h 67 % 0 mm 16.0 W/m2 BKN
20:11 -8.8 °C -12.2 °C 34164.7 hPa South 29.8 km/h 29.8 km/h 67 % 0 mm 11.0 W/m2 BKN
20:16 -8.8 °C -12.1 °C 34164.7 hPa South 41.7 km/h 41.7 km/h 68 % 0 mm 5.0 W/m2 BKN
20:21 -8.8 °C -12.1 °C 34164.7 hPa SSW 35.7 km/h 35.7 km/h 68 % 0 mm 0.0 W/m2 OVC
20:26 -9.1 °C -12.4 °C 34164.7 hPa South 23.8 km/h 23.8 km/h 68 % 0 mm 0.0 W/m2 OVC
20:31 -9.1 °C -12.4 °C 34164.7 hPa SSW 35.7 km/h 35.7 km/h 68 % 0 mm 0.0 W/m2 CLR
20:36 -9.1 °C -12.4 °C 34164.7 hPa South 31.1 km/h 31.1 km/h 68 % 0 mm 0.0 W/m2 CLR
20:41 -9.1 °C -12.4 °C 34164.7 hPa South 38.8 km/h 38.8 km/h 68 % 0 mm 0.0 W/m2 CLR
20:46 -9.1 °C -12.4 °C 34178.3 hPa SSW 35.7 km/h 35.7 km/h 68 % 0 mm 0.0 W/m2 CLR
20:51 -9.1 °C -12.4 °C 34178.3 hPa SSW 38.8 km/h 38.8 km/h 68 % 0 mm 0.0 W/m2 CLR
20:56 -9.1 °C -12.4 °C 34178.3 hPa SW 29.8 km/h 29.8 km/h 68 % 0 mm 0.0 W/m2 CLR
21:01 -9.1 °C -12.4 °C 34178.3 hPa South 44.7 km/h 44.7 km/h 68 % 0 mm 0.0 W/m2 CLR
21:06 -9.1 °C -12.4 °C 34188.4 hPa South 38.8 km/h 38.8 km/h 68 % 0 mm 0.0 W/m2 CLR
21:08 -9.1 °C -12.4 °C 34188.4 hPa SSW 35.7 km/h 35.7 km/h 68 % 0 mm 0.0 W/m2 CLR
21:13 -9.1 °C -12.4 °C 34188.4 hPa SSW 32.8 km/h 32.8 km/h 68 % 0 mm 0.0 W/m2 CLR
21:18 -9.1 °C -12.6 °C 34188.4 hPa South 32.8 km/h 32.8 km/h 67 % 0 mm 0.0 W/m2 CLR
21:23 -9.1 °C -12.6 °C 34188.4 hPa South 32.8 km/h 32.8 km/h 67 % 0 mm 0.0 W/m2 CLR
21:28 -9.1 °C -12.7 °C 34198.6 hPa SSW 29.8 km/h 29.8 km/h 66 % 0 mm 0.0 W/m2 CLR
21:33 -9.1 °C -12.7 °C 34198.6 hPa SSW 35.7 km/h 35.7 km/h 66 % 0 mm 0.0 W/m2 CLR
21:34 -9.1 °C -12.7 °C 34198.6 hPa SSW 35.7 km/h 35.7 km/h 66 % 0 mm 0.0 W/m2 CLR
21:39 -9.1 °C -12.7 °C 34198.6 hPa SSW 35.7 km/h 35.7 km/h 66 % 0 mm 0.0 W/m2 CLR
21:44 -8.8 °C -12.5 °C 34198.6 hPa SSW 32.8 km/h 32.8 km/h 65 % 0 mm 0.0 W/m2 CLR
21:49 -8.8 °C -12.6 °C 34212.1 hPa SSW 36.2 km/h 36.2 km/h 64 % 0 mm 0.0 W/m2 CLR
21:54 -8.5 °C -12.3 °C 34212.1 hPa SW 32.8 km/h 32.8 km/h 64 % 0 mm 0.0 W/m2 CLR
21:59 -8.5 °C -12.4 °C 34222.3 hPa WSW 50.7 km/h 50.7 km/h 63 % 0 mm 0.0 W/m2 CLR
22:04 -8.5 °C -12.8 °C 34222.3 hPa WSW 46.7 km/h 46.7 km/h 60 % 0 mm 0.0 W/m2 CLR
22:09 -8.5 °C -13 °C 34222.3 hPa WSW 56.6 km/h 56.6 km/h 59 % 0 mm 0.0 W/m2 CLR
22:14 -8.5 °C -13.2 °C 34235.8 hPa West 68.6 km/h 68.6 km/h 58 % 0 mm 0.0 W/m2 CLR
22:19 -8.5 °C -13 °C 34235.8 hPa SW 54.4 km/h 54.4 km/h 59 % 0 mm 0.0 W/m2 CLR
22:24 -8.5 °C -13 °C 34235.8 hPa WSW 50.7 km/h 50.7 km/h 59 % 0 mm 0.0 W/m2 CLR
22:29 -8.5 °C -13 °C 34235.8 hPa WSW 47.6 km/h 47.6 km/h 59 % 0 mm 0.0 W/m2 CLR
22:34 -8.5 °C -13 °C 34235.8 hPa SW 54.4 km/h 54.4 km/h 59 % 0 mm 0.0 W/m2 CLR
22:39 -8.5 °C -13.2 °C 34235.8 hPa WSW 56.6 km/h 56.6 km/h 58 % 0 mm 0.0 W/m2 CLR
22:44 -8.5 °C -13.2 °C 34235.8 hPa WSW 53.6 km/h 53.6 km/h 58 % 0 mm 0.0 W/m2 CLR
22:49 -8.5 °C -13 °C 34246 hPa SW 56.6 km/h 56.6 km/h 59 % 0 mm 0.0 W/m2 CLR
22:54 -8.5 °C -13 °C 34235.8 hPa SW 47.6 km/h 47.6 km/h 59 % 0 mm 0.0 W/m2 CLR
22:59 -8.8 °C -13.3 °C 34235.8 hPa WSW 50.7 km/h 50.7 km/h 59 % 0 mm 0.0 W/m2 CLR
23:04 -8.8 °C -13.3 °C 34235.8 hPa WSW 53.6 km/h 53.6 km/h 59 % 0 mm 0.0 W/m2 CLR
23:09 -8.8 °C -13.3 °C 34246 hPa West 41.7 km/h 41.7 km/h 59 % 0 mm 0.0 W/m2 CLR
23:14 -8.8 °C -13.3 °C 34246 hPa WSW 59.5 km/h 59.5 km/h 59 % 0 mm 0.0 W/m2 CLR
23:19 -8.8 °C -13.3 °C 34246 hPa SW 62.6 km/h 62.6 km/h 59 % 0 mm 0.0 W/m2 CLR
23:24 -8.8 °C -13.3 °C 34256.2 hPa SW 50.7 km/h 50.7 km/h 59 % 0 mm 0.0 W/m2 CLR
23:29 -8.8 °C -13.2 °C 34246 hPa SW 65.5 km/h 65.5 km/h 60 % 0 mm 0.0 W/m2 CLR
23:34 -8.8 °C -13.2 °C 34246 hPa SW 53.6 km/h 53.6 km/h 60 % 0 mm 0.0 W/m2 CLR
23:39 -9.1 °C -13.4 °C 34246 hPa SW 56.6 km/h 56.6 km/h 60 % 0 mm 0.0 W/m2 CLR
23:44 -9.1 °C -13.4 °C 34246 hPa SSW 59.5 km/h 59.5 km/h 60 % 0 mm 0.0 W/m2 CLR
23:49 -9.1 °C -13.4 °C 34246 hPa SSW 71.5 km/h 71.5 km/h 60 % 0 mm 0.0 W/m2 CLR
23:54 -9.1 °C -13.4 °C 34246 hPa SW 64.7 km/h 64.7 km/h 60 % 0 mm 0.0 W/m2 CLR
23:59 -9.1 °C -13.4 °C 34246 hPa SSW 65.5 km/h 65.5 km/h 60 % 0 mm 0.0 W/m2 CLR
Lo Temps de Massalio
Compliments of Weather Underground - 1.25 mb